sensor_id;sensor_type;location;lat;lon;timestamp;P1;durP1;ratioP1;P2;durP2;ratioP2
66129;SDS011;52930;51.464;11.764;2023-06-22T00:00:52;19.35;;;12.05;;
66129;SDS011;52930;51.464;11.764;2023-06-22T00:03:18;21.58;;;12.18;;
66129;SDS011;52930;51.464;11.764;2023-06-22T00:05:45;19.97;;;11.30;;
66129;SDS011;52930;51.464;11.764;2023-06-22T00:08:10;19.42;;;11.68;;
66129;SDS011;52930;51.464;11.764;2023-06-22T00:10:36;18.80;;;10.57;;
66129;SDS011;52930;51.464;11.764;2023-06-22T00:13:01;14.85;;;10.32;;
66129;SDS011;52930;51.464;11.764;2023-06-22T00:15:27;18.57;;;12.50;;
66129;SDS011;52930;51.464;11.764;2023-06-22T00:17:52;18.07;;;12.43;;
66129;SDS011;52930;51.464;11.764;2023-06-22T00:20:17;17.57;;;11.93;;
66129;SDS011;52930;51.464;11.764;2023-06-22T00:22:43;18.73;;;10.70;;
66129;SDS011;52930;51.464;11.764;2023-06-22T00:25:09;16.20;;;10.90;;
66129;SDS011;52930;51.464;11.764;2023-06-22T00:27:35;16.35;;;11.18;;
66129;SDS011;52930;51.464;11.764;2023-06-22T00:30:01;17.35;;;10.82;;
66129;SDS011;52930;51.464;11.764;2023-06-22T00:32:26;17.40;;;10.93;;
66129;SDS011;52930;51.464;11.764;2023-06-22T00:34:52;18.40;;;12.13;;
66129;SDS011;52930;51.464;11.764;2023-06-22T00:37:17;16.37;;;11.00;;
66129;SDS011;52930;51.464;11.764;2023-06-22T00:39:43;18.10;;;12.02;;
66129;SDS011;52930;51.464;11.764;2023-06-22T00:42:08;16.70;;;10.80;;
66129;SDS011;52930;51.464;11.764;2023-06-22T00:44:34;17.47;;;10.57;;
66129;SDS011;52930;51.464;11.764;2023-06-22T00:47:00;18.02;;;11.50;;
66129;SDS011;52930;51.464;11.764;2023-06-22T00:49:26;16.77;;;11.13;;
66129;SDS011;52930;51.464;11.764;2023-06-22T00:51:51;15.37;;;9.73;;
66129;SDS011;52930;51.464;11.764;2023-06-22T00:54:17;21.10;;;11.93;;
66129;SDS011;52930;51.464;11.764;2023-06-22T00:56:53;21.10;;;12.63;;
66129;SDS011;52930;51.464;11.764;2023-06-22T00:59:20;18.40;;;12.02;;
66129;SDS011;52930;51.464;11.764;2023-06-22T01:01:46;22.67;;;13.05;;
66129;SDS011;52930;51.464;11.764;2023-06-22T01:04:11;20.07;;;12.93;;
66129;SDS011;52930;51.464;11.764;2023-06-22T01:06:38;22.30;;;13.17;;
66129;SDS011;52930;51.464;11.764;2023-06-22T01:09:13;22.98;;;14.52;;
66129;SDS011;52930;51.464;11.764;2023-06-22T01:12:02;20.98;;;13.80;;
66129;SDS011;52930;51.464;11.764;2023-06-22T01:14:36;23.73;;;14.23;;
66129;SDS011;52930;51.464;11.764;2023-06-22T01:17:05;24.05;;;14.77;;
66129;SDS011;52930;51.464;11.764;2023-06-22T01:22:20;24.23;;;14.93;;
66129;SDS011;52930;51.464;11.764;2023-06-22T01:27:33;23.58;;;14.45;;
66129;SDS011;52930;51.464;11.764;2023-06-22T01:30:07;23.67;;;14.10;;
66129;SDS011;52930;51.464;11.764;2023-06-22T01:32:35;24.98;;;14.70;;
66129;SDS011;52930;51.464;11.764;2023-06-22T01:35:03;23.60;;;14.23;;
66129;SDS011;52930;51.464;11.764;2023-06-22T01:37:30;24.20;;;15.10;;
66129;SDS011;52930;51.464;11.764;2023-06-22T01:39:57;23.92;;;15.18;;
66129;SDS011;52930;51.464;11.764;2023-06-22T01:42:23;23.97;;;14.43;;
66129;SDS011;52930;51.464;11.764;2023-06-22T01:44:50;21.10;;;13.35;;
66129;SDS011;52930;51.464;11.764;2023-06-22T01:47:15;25.58;;;14.05;;
66129;SDS011;52930;51.464;11.764;2023-06-22T01:49:42;24.02;;;14.40;;
66129;SDS011;52930;51.464;11.764;2023-06-22T01:52:08;22.40;;;13.73;;
66129;SDS011;52930;51.464;11.764;2023-06-22T01:54:33;24.25;;;14.13;;
66129;SDS011;52930;51.464;11.764;2023-06-22T01:56:59;23.70;;;14.00;;
66129;SDS011;52930;51.464;11.764;2023-06-22T01:59:39;20.52;;;13.38;;
66129;SDS011;52930;51.464;11.764;2023-06-22T02:02:11;23.43;;;13.67;;
66129;SDS011;52930;51.464;11.764;2023-06-22T02:04:48;21.90;;;14.05;;
66129;SDS011;52930;51.464;11.764;2023-06-22T02:07:20;20.63;;;13.68;;
66129;SDS011;52930;51.464;11.764;2023-06-22T02:09:46;22.05;;;13.23;;
66129;SDS011;52930;51.464;11.764;2023-06-22T02:12:17;23.65;;;14.63;;
66129;SDS011;52930;51.464;11.764;2023-06-22T02:14:43;22.77;;;13.63;;
66129;SDS011;52930;51.464;11.764;2023-06-22T02:17:11;25.58;;;14.88;;
66129;SDS011;52930;51.464;11.764;2023-06-22T02:19:37;20.37;;;13.77;;
66129;SDS011;52930;51.464;11.764;2023-06-22T02:22:03;23.88;;;13.68;;
66129;SDS011;52930;51.464;11.764;2023-06-22T02:24:29;22.30;;;13.60;;
66129;SDS011;52930;51.464;11.764;2023-06-22T02:26:57;19.52;;;12.27;;
66129;SDS011;52930;51.464;11.764;2023-06-22T02:29:22;21.00;;;13.30;;
66129;SDS011;52930;51.464;11.764;2023-06-22T02:31:48;20.65;;;12.25;;
66129;SDS011;52930;51.464;11.764;2023-06-22T02:34:13;25.33;;;15.23;;
66129;SDS011;52930;51.464;11.764;2023-06-22T02:36:43;26.60;;;13.32;;
66129;SDS011;52930;51.464;11.764;2023-06-22T02:39:24;22.15;;;12.93;;
66129;SDS011;52930;51.464;11.764;2023-06-22T02:41:50;20.60;;;13.30;;
66129;SDS011;52930;51.464;11.764;2023-06-22T02:44:19;21.00;;;13.50;;
66129;SDS011;52930;51.464;11.764;2023-06-22T02:46:45;22.98;;;13.30;;
66129;SDS011;52930;51.464;11.764;2023-06-22T02:49:11;21.90;;;13.25;;
66129;SDS011;52930;51.464;11.764;2023-06-22T02:51:41;18.67;;;12.00;;
66129;SDS011;52930;51.464;11.764;2023-06-22T02:54:10;26.40;;;14.15;;
66129;SDS011;52930;51.464;11.764;2023-06-22T02:56:35;26.70;;;15.47;;
66129;SDS011;52930;51.464;11.764;2023-06-22T02:59:01;24.75;;;14.25;;
66129;SDS011;52930;51.464;11.764;2023-06-22T03:01:27;21.60;;;13.73;;
66129;SDS011;52930;51.464;11.764;2023-06-22T03:03:55;24.27;;;13.93;;
66129;SDS011;52930;51.464;11.764;2023-06-22T03:06:20;24.43;;;13.83;;
66129;SDS011;52930;51.464;11.764;2023-06-22T03:08:48;24.42;;;15.00;;
66129;SDS011;52930;51.464;11.764;2023-06-22T03:11:15;23.05;;;14.30;;
66129;SDS011;52930;51.464;11.764;2023-06-22T03:13:40;21.13;;;12.80;;
66129;SDS011;52930;51.464;11.764;2023-06-22T03:16:05;22.33;;;14.37;;
66129;SDS011;52930;51.464;11.764;2023-06-22T03:18:31;22.88;;;14.48;;
66129;SDS011;52930;51.464;11.764;2023-06-22T03:20:56;27.67;;;14.53;;
66129;SDS011;52930;51.464;11.764;2023-06-22T03:23:21;24.37;;;14.53;;
66129;SDS011;52930;51.464;11.764;2023-06-22T03:25:47;21.10;;;13.00;;
66129;SDS011;52930;51.464;11.764;2023-06-22T03:28:12;20.33;;;13.07;;
66129;SDS011;52930;51.464;11.764;2023-06-22T03:30:37;23.70;;;14.50;;
66129;SDS011;52930;51.464;11.764;2023-06-22T03:33:03;23.60;;;14.10;;
66129;SDS011;52930;51.464;11.764;2023-06-22T03:35:28;24.13;;;15.40;;
66129;SDS011;52930;51.464;11.764;2023-06-22T03:37:53;25.13;;;15.20;;
66129;SDS011;52930;51.464;11.764;2023-06-22T03:40:19;25.67;;;15.47;;
66129;SDS011;52930;51.464;11.764;2023-06-22T03:42:45;27.37;;;16.07;;
66129;SDS011;52930;51.464;11.764;2023-06-22T03:45:11;29.20;;;16.00;;
66129;SDS011;52930;51.464;11.764;2023-06-22T03:47:36;28.17;;;16.50;;
66129;SDS011;52930;51.464;11.764;2023-06-22T03:50:01;27.30;;;17.07;;
66129;SDS011;52930;51.464;11.764;2023-06-22T03:52:28;27.10;;;16.42;;
66129;SDS011;52930;51.464;11.764;2023-06-22T03:54:54;28.40;;;16.37;;
66129;SDS011;52930;51.464;11.764;2023-06-22T03:57:19;27.60;;;16.57;;
66129;SDS011;52930;51.464;11.764;2023-06-22T03:59:44;25.07;;;15.70;;
66129;SDS011;52930;51.464;11.764;2023-06-22T04:02:10;24.73;;;15.07;;
66129;SDS011;52930;51.464;11.764;2023-06-22T04:04:35;26.48;;;15.75;;
66129;SDS011;52930;51.464;11.764;2023-06-22T04:07:00;28.77;;;16.07;;
66129;SDS011;52930;51.464;11.764;2023-06-22T04:09:26;26.43;;;15.47;;
66129;SDS011;52930;51.464;11.764;2023-06-22T04:11:51;23.63;;;14.67;;
66129;SDS011;52930;51.464;11.764;2023-06-22T04:14:17;25.93;;;14.87;;
66129;SDS011;52930;51.464;11.764;2023-06-22T04:16:42;25.93;;;15.20;;
66129;SDS011;52930;51.464;11.764;2023-06-22T04:19:07;27.00;;;15.77;;
66129;SDS011;52930;51.464;11.764;2023-06-22T04:21:38;31.17;;;15.87;;
66129;SDS011;52930;51.464;11.764;2023-06-22T04:24:03;24.37;;;15.43;;
66129;SDS011;52930;51.464;11.764;2023-06-22T04:26:29;27.55;;;15.23;;
66129;SDS011;52930;51.464;11.764;2023-06-22T04:28:54;25.87;;;15.00;;
66129;SDS011;52930;51.464;11.764;2023-06-22T04:31:20;25.58;;;14.50;;
66129;SDS011;52930;51.464;11.764;2023-06-22T04:33:46;25.87;;;14.03;;
66129;SDS011;52930;51.464;11.764;2023-06-22T04:36:11;22.53;;;14.00;;
66129;SDS011;52930;51.464;11.764;2023-06-22T04:38:39;21.55;;;13.95;;
66129;SDS011;52930;51.464;11.764;2023-06-22T04:41:05;21.77;;;13.93;;
66129;SDS011;52930;51.464;11.764;2023-06-22T04:43:31;19.23;;;12.50;;
66129;SDS011;52930;51.464;11.764;2023-06-22T04:45:57;23.83;;;13.00;;
66129;SDS011;52930;51.464;11.764;2023-06-22T04:48:29;25.33;;;13.98;;
66129;SDS011;52930;51.464;11.764;2023-06-22T04:50:58;21.33;;;13.77;;
66129;SDS011;52930;51.464;11.764;2023-06-22T04:53:28;20.20;;;12.35;;
66129;SDS011;52930;51.464;11.764;2023-06-22T04:55:54;22.00;;;12.63;;
66129;SDS011;52930;51.464;11.764;2023-06-22T04:58:20;22.35;;;13.05;;
66129;SDS011;52930;51.464;11.764;2023-06-22T05:00:46;19.17;;;12.83;;
66129;SDS011;52930;51.464;11.764;2023-06-22T05:03:12;23.35;;;12.82;;
66129;SDS011;52930;51.464;11.764;2023-06-22T05:05:37;23.30;;;13.23;;
66129;SDS011;52930;51.464;11.764;2023-06-22T05:08:03;20.33;;;12.98;;
66129;SDS011;52930;51.464;11.764;2023-06-22T05:10:31;24.30;;;13.70;;
66129;SDS011;52930;51.464;11.764;2023-06-22T05:12:57;23.60;;;13.77;;
66129;SDS011;52930;51.464;11.764;2023-06-22T05:15:22;24.53;;;14.80;;
66129;SDS011;52930;51.464;11.764;2023-06-22T05:17:51;27.50;;;15.10;;
66129;SDS011;52930;51.464;11.764;2023-06-22T05:20:17;33.63;;;16.63;;
66129;SDS011;52930;51.464;11.764;2023-06-22T05:22:43;27.80;;;16.35;;
66129;SDS011;52930;51.464;11.764;2023-06-22T05:25:08;27.37;;;16.37;;
66129;SDS011;52930;51.464;11.764;2023-06-22T05:27:35;31.63;;;15.45;;
66129;SDS011;52930;51.464;11.764;2023-06-22T05:30:05;29.35;;;16.38;;
66129;SDS011;52930;51.464;11.764;2023-06-22T05:32:34;29.65;;;16.08;;
66129;SDS011;52930;51.464;11.764;2023-06-22T05:34:59;31.23;;;17.07;;
66129;SDS011;52930;51.464;11.764;2023-06-22T05:37:25;29.40;;;16.37;;
66129;SDS011;52930;51.464;11.764;2023-06-22T05:39:51;27.83;;;15.88;;
66129;SDS011;52930;51.464;11.764;2023-06-22T05:42:16;28.80;;;14.10;;
66129;SDS011;52930;51.464;11.764;2023-06-22T05:44:41;26.27;;;14.07;;
66129;SDS011;52930;51.464;11.764;2023-06-22T05:47:07;28.70;;;13.70;;
66129;SDS011;52930;51.464;11.764;2023-06-22T05:49:32;26.17;;;14.20;;
66129;SDS011;52930;51.464;11.764;2023-06-22T05:51:58;24.03;;;14.63;;
66129;SDS011;52930;51.464;11.764;2023-06-22T05:54:24;22.70;;;13.75;;
66129;SDS011;52930;51.464;11.764;2023-06-22T05:56:50;21.97;;;13.67;;
66129;SDS011;52930;51.464;11.764;2023-06-22T05:59:15;27.90;;;14.77;;
66129;SDS011;52930;51.464;11.764;2023-06-22T06:01:40;22.70;;;13.67;;
66129;SDS011;52930;51.464;11.764;2023-06-22T06:04:06;19.80;;;13.07;;
66129;SDS011;52930;51.464;11.764;2023-06-22T06:06:33;20.15;;;13.30;;
66129;SDS011;52930;51.464;11.764;2023-06-22T06:09:02;21.25;;;13.30;;
66129;SDS011;52930;51.464;11.764;2023-06-22T06:11:28;20.83;;;12.93;;
66129;SDS011;52930;51.464;11.764;2023-06-22T06:13:53;19.75;;;12.90;;
66129;SDS011;52930;51.464;11.764;2023-06-22T06:16:19;20.53;;;13.80;;
66129;SDS011;52930;51.464;11.764;2023-06-22T06:18:44;20.90;;;13.40;;
66129;SDS011;52930;51.464;11.764;2023-06-22T06:21:09;22.63;;;13.20;;
66129;SDS011;52930;51.464;11.764;2023-06-22T06:23:35;18.73;;;12.57;;
66129;SDS011;52930;51.464;11.764;2023-06-22T06:26:00;20.13;;;13.33;;
66129;SDS011;52930;51.464;11.764;2023-06-22T06:28:26;22.17;;;12.50;;
66129;SDS011;52930;51.464;11.764;2023-06-22T06:30:51;21.60;;;13.43;;
66129;SDS011;52930;51.464;11.764;2023-06-22T06:33:17;19.90;;;13.43;;
66129;SDS011;52930;51.464;11.764;2023-06-22T06:35:42;17.45;;;11.80;;
66129;SDS011;52930;51.464;11.764;2023-06-22T06:38:08;21.87;;;12.97;;
66129;SDS011;52930;51.464;11.764;2023-06-22T06:40:33;21.10;;;13.33;;
66129;SDS011;52930;51.464;11.764;2023-06-22T06:42:58;19.80;;;12.90;;
66129;SDS011;52930;51.464;11.764;2023-06-22T06:45:24;21.93;;;12.73;;
66129;SDS011;52930;51.464;11.764;2023-06-22T06:47:53;24.95;;;12.88;;
66129;SDS011;52930;51.464;11.764;2023-06-22T06:50:19;21.13;;;13.40;;
66129;SDS011;52930;51.464;11.764;2023-06-22T06:52:44;20.67;;;12.07;;
66129;SDS011;52930;51.464;11.764;2023-06-22T06:55:09;21.13;;;12.07;;
66129;SDS011;52930;51.464;11.764;2023-06-22T06:57:37;20.65;;;12.63;;
66129;SDS011;52930;51.464;11.764;2023-06-22T07:00:07;21.10;;;12.07;;
66129;SDS011;52930;51.464;11.764;2023-06-22T07:02:38;17.77;;;11.15;;
66129;SDS011;52930;51.464;11.764;2023-06-22T07:05:05;17.95;;;11.80;;
66129;SDS011;52930;51.464;11.764;2023-06-22T07:07:30;21.37;;;12.07;;
66129;SDS011;52930;51.464;11.764;2023-06-22T07:09:56;18.73;;;12.57;;
66129;SDS011;52930;51.464;11.764;2023-06-22T07:12:21;19.27;;;12.10;;
66129;SDS011;52930;51.464;11.764;2023-06-22T07:14:47;21.23;;;12.43;;
66129;SDS011;52930;51.464;11.764;2023-06-22T07:17:12;18.30;;;11.77;;
66129;SDS011;52930;51.464;11.764;2023-06-22T07:19:37;17.17;;;11.07;;
66129;SDS011;52930;51.464;11.764;2023-06-22T07:22:03;18.67;;;11.50;;
66129;SDS011;52930;51.464;11.764;2023-06-22T07:24:29;17.23;;;11.00;;
66129;SDS011;52930;51.464;11.764;2023-06-22T07:26:54;17.33;;;10.73;;
66129;SDS011;52930;51.464;11.764;2023-06-22T07:29:20;17.17;;;10.33;;
66129;SDS011;52930;51.464;11.764;2023-06-22T07:31:46;17.58;;;10.05;;
66129;SDS011;52930;51.464;11.764;2023-06-22T07:34:12;17.50;;;9.90;;
66129;SDS011;52930;51.464;11.764;2023-06-22T07:36:38;19.63;;;11.43;;
66129;SDS011;52930;51.464;11.764;2023-06-22T07:39:03;19.23;;;10.63;;
66129;SDS011;52930;51.464;11.764;2023-06-22T07:41:29;18.30;;;10.67;;
66129;SDS011;52930;51.464;11.764;2023-06-22T07:43:54;18.60;;;10.27;;
66129;SDS011;52930;51.464;11.764;2023-06-22T07:46:20;19.92;;;10.13;;
66129;SDS011;52930;51.464;11.764;2023-06-22T07:48:45;15.53;;;9.30;;
66129;SDS011;52930;51.464;11.764;2023-06-22T07:51:10;15.30;;;9.33;;
66129;SDS011;52930;51.464;11.764;2023-06-22T07:53:39;14.10;;;9.85;;
66129;SDS011;52930;51.464;11.764;2023-06-22T07:56:09;16.37;;;9.60;;
66129;SDS011;52930;51.464;11.764;2023-06-22T07:58:35;15.20;;;10.05;;
66129;SDS011;52930;51.464;11.764;2023-06-22T08:01:01;17.13;;;10.33;;
66129;SDS011;52930;51.464;11.764;2023-06-22T08:03:27;13.35;;;9.80;;
66129;SDS011;52930;51.464;11.764;2023-06-22T08:05:52;12.83;;;9.43;;
66129;SDS011;52930;51.464;11.764;2023-06-22T08:08:17;14.83;;;9.77;;
66129;SDS011;52930;51.464;11.764;2023-06-22T08:10:43;14.83;;;9.40;;
66129;SDS011;52930;51.464;11.764;2023-06-22T08:13:08;13.95;;;9.30;;
66129;SDS011;52930;51.464;11.764;2023-06-22T08:15:33;14.47;;;9.67;;
66129;SDS011;52930;51.464;11.764;2023-06-22T08:17:59;16.97;;;10.13;;
66129;SDS011;52930;51.464;11.764;2023-06-22T08:20:25;15.18;;;9.18;;
66129;SDS011;52930;51.464;11.764;2023-06-22T08:22:51;13.27;;;9.80;;
66129;SDS011;52930;51.464;11.764;2023-06-22T08:25:16;13.83;;;8.43;;
66129;SDS011;52930;51.464;11.764;2023-06-22T08:27:44;14.47;;;8.77;;
66129;SDS011;52930;51.464;11.764;2023-06-22T08:30:10;11.75;;;9.18;;
66129;SDS011;52930;51.464;11.764;2023-06-22T08:32:36;18.70;;;10.23;;
66129;SDS011;52930;51.464;11.764;2023-06-22T08:35:01;13.50;;;8.88;;
66129;SDS011;52930;51.464;11.764;2023-06-22T08:37:26;15.10;;;9.03;;
66129;SDS011;52930;51.464;11.764;2023-06-22T08:39:59;15.20;;;8.10;;
66129;SDS011;52930;51.464;11.764;2023-06-22T08:42:26;12.82;;;8.50;;
66129;SDS011;52930;51.464;11.764;2023-06-22T08:44:51;14.65;;;9.10;;
66129;SDS011;52930;51.464;11.764;2023-06-22T08:47:17;14.07;;;8.13;;
66129;SDS011;52930;51.464;11.764;2023-06-22T08:49:43;13.75;;;8.32;;
66129;SDS011;52930;51.464;11.764;2023-06-22T08:52:08;14.20;;;8.00;;
66129;SDS011;52930;51.464;11.764;2023-06-22T08:54:34;14.57;;;8.87;;
66129;SDS011;52930;51.464;11.764;2023-06-22T08:56:59;13.52;;;8.63;;
66129;SDS011;52930;51.464;11.764;2023-06-22T08:59:27;12.53;;;8.87;;
66129;SDS011;52930;51.464;11.764;2023-06-22T09:01:53;12.20;;;8.55;;
66129;SDS011;52930;51.464;11.764;2023-06-22T09:04:18;12.77;;;8.37;;
66129;SDS011;52930;51.464;11.764;2023-06-22T09:06:47;11.30;;;8.20;;
66129;SDS011;52930;51.464;11.764;2023-06-22T09:09:12;12.80;;;8.87;;
66129;SDS011;52930;51.464;11.764;2023-06-22T09:11:38;12.70;;;8.60;;
66129;SDS011;52930;51.464;11.764;2023-06-22T09:14:03;14.07;;;8.60;;
66129;SDS011;52930;51.464;11.764;2023-06-22T09:16:29;15.67;;;8.90;;
66129;SDS011;52930;51.464;11.764;2023-06-22T09:18:55;13.27;;;9.05;;
66129;SDS011;52930;51.464;11.764;2023-06-22T09:21:20;12.27;;;8.97;;
66129;SDS011;52930;51.464;11.764;2023-06-22T09:23:45;12.00;;;8.90;;
66129;SDS011;52930;51.464;11.764;2023-06-22T09:26:15;11.43;;;8.48;;
66129;SDS011;52930;51.464;11.764;2023-06-22T09:28:40;13.10;;;7.80;;
66129;SDS011;52930;51.464;11.764;2023-06-22T09:31:05;12.27;;;8.70;;
66129;SDS011;52930;51.464;11.764;2023-06-22T09:33:31;10.75;;;7.70;;
66129;SDS011;52930;51.464;11.764;2023-06-22T09:35:57;13.67;;;7.40;;
66129;SDS011;52930;51.464;11.764;2023-06-22T09:38:22;10.47;;;7.20;;
66129;SDS011;52930;51.464;11.764;2023-06-22T09:40:47;11.55;;;8.23;;
66129;SDS011;52930;51.464;11.764;2023-06-22T09:43:13;11.73;;;7.93;;
66129;SDS011;52930;51.464;11.764;2023-06-22T09:45:38;11.50;;;7.83;;
66129;SDS011;52930;51.464;11.764;2023-06-22T09:48:04;10.53;;;6.93;;
66129;SDS011;52930;51.464;11.764;2023-06-22T09:50:29;11.27;;;7.77;;
66129;SDS011;52930;51.464;11.764;2023-06-22T09:52:54;12.90;;;8.18;;
66129;SDS011;52930;51.464;11.764;2023-06-22T09:55:20;15.00;;;7.67;;
66129;SDS011;52930;51.464;11.764;2023-06-22T09:57:46;10.73;;;7.07;;
66129;SDS011;52930;51.464;11.764;2023-06-22T10:00:11;11.30;;;7.57;;
66129;SDS011;52930;51.464;11.764;2023-06-22T10:02:43;10.23;;;6.78;;
66129;SDS011;52930;51.464;11.764;2023-06-22T10:05:09;11.87;;;8.20;;
66129;SDS011;52930;51.464;11.764;2023-06-22T10:07:35;11.20;;;7.63;;
66129;SDS011;52930;51.464;11.764;2023-06-22T10:10:04;10.37;;;7.13;;
66129;SDS011;52930;51.464;11.764;2023-06-22T10:12:31;10.50;;;6.72;;
66129;SDS011;52930;51.464;11.764;2023-06-22T10:14:56;11.23;;;7.03;;
66129;SDS011;52930;51.464;11.764;2023-06-22T10:17:21;9.60;;;6.77;;
66129;SDS011;52930;51.464;11.764;2023-06-22T10:19:47;9.63;;;6.40;;
66129;SDS011;52930;51.464;11.764;2023-06-22T10:22:12;8.60;;;6.53;;
66129;SDS011;52930;51.464;11.764;2023-06-22T10:24:37;9.40;;;5.90;;
66129;SDS011;52930;51.464;11.764;2023-06-22T10:27:09;9.80;;;5.80;;
66129;SDS011;52930;51.464;11.764;2023-06-22T10:29:34;9.10;;;6.53;;
66129;SDS011;52930;51.464;11.764;2023-06-22T10:32:01;11.02;;;6.25;;
66129;SDS011;52930;51.464;11.764;2023-06-22T10:34:27;10.03;;;6.10;;
66129;SDS011;52930;51.464;11.764;2023-06-22T10:36:52;9.30;;;6.13;;
66129;SDS011;52930;51.464;11.764;2023-06-22T10:39:18;11.82;;;6.57;;
66129;SDS011;52930;51.464;11.764;2023-06-22T10:41:43;11.00;;;6.37;;
66129;SDS011;52930;51.464;11.764;2023-06-22T10:44:08;9.70;;;6.03;;
66129;SDS011;52930;51.464;11.764;2023-06-22T10:46:34;8.77;;;6.30;;
66129;SDS011;52930;51.464;11.764;2023-06-22T10:48:59;10.73;;;6.63;;
66129;SDS011;52930;51.464;11.764;2023-06-22T10:51:25;9.70;;;6.40;;
66129;SDS011;52930;51.464;11.764;2023-06-22T10:53:50;8.73;;;6.28;;
66129;SDS011;52930;51.464;11.764;2023-06-22T10:56:16;9.80;;;6.43;;
66129;SDS011;52930;51.464;11.764;2023-06-22T10:58:41;8.40;;;6.33;;
66129;SDS011;52930;51.464;11.764;2023-06-22T11:01:06;9.50;;;6.40;;
66129;SDS011;52930;51.464;11.764;2023-06-22T11:03:32;9.43;;;6.10;;
66129;SDS011;52930;51.464;11.764;2023-06-22T11:05:57;9.67;;;5.97;;
66129;SDS011;52930;51.464;11.764;2023-06-22T11:08:22;10.30;;;6.33;;
66129;SDS011;52930;51.464;11.764;2023-06-22T11:10:48;8.60;;;6.30;;
66129;SDS011;52930;51.464;11.764;2023-06-22T11:13:13;9.60;;;5.90;;
66129;SDS011;52930;51.464;11.764;2023-06-22T11:15:38;9.00;;;5.47;;
66129;SDS011;52930;51.464;11.764;2023-06-22T11:18:04;8.13;;;6.07;;
66129;SDS011;52930;51.464;11.764;2023-06-22T11:20:31;9.07;;;5.88;;
66129;SDS011;52930;51.464;11.764;2023-06-22T11:22:59;11.90;;;5.78;;
66129;SDS011;52930;51.464;11.764;2023-06-22T11:25:25;8.50;;;5.90;;
66129;SDS011;52930;51.464;11.764;2023-06-22T11:27:50;9.30;;;5.97;;
66129;SDS011;52930;51.464;11.764;2023-06-22T11:30:17;9.35;;;6.15;;
66129;SDS011;52930;51.464;11.764;2023-06-22T11:32:43;9.40;;;6.60;;
66129;SDS011;52930;51.464;11.764;2023-06-22T11:35:08;11.37;;;6.90;;
66129;SDS011;52930;51.464;11.764;2023-06-22T11:37:34;8.97;;;5.53;;
66129;SDS011;52930;51.464;11.764;2023-06-22T11:39:59;7.40;;;5.20;;
66129;SDS011;52930;51.464;11.764;2023-06-22T11:42:24;10.00;;;5.77;;
66129;SDS011;52930;51.464;11.764;2023-06-22T11:44:50;8.53;;;5.83;;
66129;SDS011;52930;51.464;11.764;2023-06-22T11:47:15;9.70;;;5.77;;
66129;SDS011;52930;51.464;11.764;2023-06-22T11:49:41;9.80;;;5.68;;
66129;SDS011;52930;51.464;11.764;2023-06-22T11:52:06;8.57;;;5.33;;
66129;SDS011;52930;51.464;11.764;2023-06-22T11:54:31;10.03;;;5.83;;
66129;SDS011;52930;51.464;11.764;2023-06-22T11:56:57;11.90;;;5.87;;
66129;SDS011;52930;51.464;11.764;2023-06-22T11:59:22;8.90;;;6.27;;
66129;SDS011;52930;51.464;11.764;2023-06-22T12:01:47;9.63;;;6.20;;
66129;SDS011;52930;51.464;11.764;2023-06-22T12:04:14;9.17;;;6.10;;
66129;SDS011;52930;51.464;11.764;2023-06-22T12:06:39;9.70;;;6.30;;
66129;SDS011;52930;51.464;11.764;2023-06-22T12:09:07;11.73;;;6.28;;
66129;SDS011;52930;51.464;11.764;2023-06-22T12:11:32;12.07;;;6.27;;
66129;SDS011;52930;51.464;11.764;2023-06-22T12:13:57;9.27;;;6.37;;
66129;SDS011;52930;51.464;11.764;2023-06-22T12:16:26;10.35;;;5.90;;
66129;SDS011;52930;51.464;11.764;2023-06-22T12:18:52;9.45;;;5.95;;
66129;SDS011;52930;51.464;11.764;2023-06-22T12:21:18;9.60;;;6.27;;
66129;SDS011;52930;51.464;11.764;2023-06-22T12:23:43;9.67;;;6.33;;
66129;SDS011;52930;51.464;11.764;2023-06-22T12:26:09;9.48;;;5.70;;
66129;SDS011;52930;51.464;11.764;2023-06-22T12:28:34;9.93;;;6.30;;
66129;SDS011;52930;51.464;11.764;2023-06-22T12:30:59;9.27;;;6.03;;
66129;SDS011;52930;51.464;11.764;2023-06-22T12:33:25;11.77;;;6.27;;
66129;SDS011;52930;51.464;11.764;2023-06-22T12:35:50;10.73;;;6.63;;
66129;SDS011;52930;51.464;11.764;2023-06-22T12:38:15;9.87;;;5.97;;
66129;SDS011;52930;51.464;11.764;2023-06-22T12:40:40;10.07;;;5.90;;
66129;SDS011;52930;51.464;11.764;2023-06-22T12:43:06;11.37;;;6.00;;
66129;SDS011;52930;51.464;11.764;2023-06-22T12:45:32;8.25;;;5.65;;
66129;SDS011;52930;51.464;11.764;2023-06-22T12:47:58;9.65;;;6.32;;
66129;SDS011;52930;51.464;11.764;2023-06-22T12:50:24;9.45;;;6.07;;
66129;SDS011;52930;51.464;11.764;2023-06-22T12:52:50;9.57;;;6.43;;
66129;SDS011;52930;51.464;11.764;2023-06-22T12:55:15;8.90;;;6.17;;
66129;SDS011;52930;51.464;11.764;2023-06-22T12:57:41;10.52;;;6.25;;
66129;SDS011;52930;51.464;11.764;2023-06-22T13:00:06;10.07;;;6.57;;
66129;SDS011;52930;51.464;11.764;2023-06-22T13:02:34;9.13;;;5.80;;
66129;SDS011;52930;51.464;11.764;2023-06-22T13:05:00;12.00;;;6.63;;
66129;SDS011;52930;51.464;11.764;2023-06-22T13:07:25;12.53;;;6.10;;
66129;SDS011;52930;51.464;11.764;2023-06-22T13:09:50;11.27;;;5.83;;
66129;SDS011;52930;51.464;11.764;2023-06-22T13:12:16;9.98;;;5.53;;
66129;SDS011;52930;51.464;11.764;2023-06-22T13:14:42;8.03;;;5.67;;
66129;SDS011;52930;51.464;11.764;2023-06-22T13:17:08;13.85;;;6.70;;
66129;SDS011;52930;51.464;11.764;2023-06-22T13:19:33;12.77;;;6.37;;
66129;SDS011;52930;51.464;11.764;2023-06-22T13:21:59;10.43;;;6.20;;
66129;SDS011;52930;51.464;11.764;2023-06-22T13:24:25;13.77;;;6.43;;
66129;SDS011;52930;51.464;11.764;2023-06-22T13:26:50;12.50;;;6.50;;
66129;SDS011;52930;51.464;11.764;2023-06-22T13:29:15;11.97;;;6.23;;
66129;SDS011;52930;51.464;11.764;2023-06-22T13:31:40;8.48;;;5.50;;
66129;SDS011;52930;51.464;11.764;2023-06-22T13:34:06;10.90;;;6.20;;
66129;SDS011;52930;51.464;11.764;2023-06-22T13:36:31;10.53;;;6.23;;
66129;SDS011;52930;51.464;11.764;2023-06-22T13:38:57;9.77;;;5.70;;
66129;SDS011;52930;51.464;11.764;2023-06-22T13:41:22;8.30;;;5.10;;
66129;SDS011;52930;51.464;11.764;2023-06-22T13:43:47;8.63;;;5.90;;
66129;SDS011;52930;51.464;11.764;2023-06-22T13:46:13;9.93;;;5.83;;
66129;SDS011;52930;51.464;11.764;2023-06-22T13:48:38;10.23;;;6.53;;
66129;SDS011;52930;51.464;11.764;2023-06-22T13:51:03;9.63;;;6.17;;
66129;SDS011;52930;51.464;11.764;2023-06-22T13:53:29;10.57;;;6.30;;
66129;SDS011;52930;51.464;11.764;2023-06-22T13:55:55;10.03;;;5.83;;
66129;SDS011;52930;51.464;11.764;2023-06-22T13:58:20;10.93;;;6.00;;
66129;SDS011;52930;51.464;11.764;2023-06-22T14:00:46;9.37;;;6.40;;
66129;SDS011;52930;51.464;11.764;2023-06-22T14:03:12;9.32;;;6.22;;
66129;SDS011;52930;51.464;11.764;2023-06-22T14:05:40;10.40;;;6.50;;
66129;SDS011;52930;51.464;11.764;2023-06-22T14:08:06;8.65;;;6.35;;
66129;SDS011;52930;51.464;11.764;2023-06-22T14:10:31;9.53;;;6.10;;
66129;SDS011;52930;51.464;11.764;2023-06-22T14:12:56;12.73;;;6.80;;
66129;SDS011;52930;51.464;11.764;2023-06-22T14:15:22;10.10;;;6.03;;